createdAt,value
2023-02-14T00:04:23.692Z,99.90
2023-02-14T00:09:25.818Z,99.90
2023-02-14T00:14:46.822Z,99.90
2023-02-14T00:19:48.889Z,99.90
2023-02-14T00:24:51.173Z,99.90
2023-02-14T00:29:54.838Z,99.90
2023-02-14T00:34:57.117Z,99.90
2023-02-14T00:39:59.217Z,99.90
2023-02-14T00:45:01.449Z,99.90
2023-02-14T00:50:05.106Z,99.90
2023-02-14T00:55:07.349Z,99.90
2023-02-14T01:00:10.030Z,99.90
2023-02-14T01:05:12.216Z,99.90
2023-02-14T01:10:14.300Z,99.90
2023-02-14T01:15:17.880Z,99.90
2023-02-14T01:20:20.188Z,99.90
2023-02-14T01:25:22.317Z,99.90
2023-02-14T01:30:24.997Z,99.90
2023-02-14T01:35:27.269Z,99.90
2023-02-14T01:40:29.364Z,99.90
2023-02-14T01:45:32.574Z,99.90
2023-02-14T01:50:38.652Z,99.90
2023-02-14T01:55:46.031Z,99.90
2023-02-14T02:00:59.639Z,99.90
2023-02-14T02:06:06.209Z,99.90
2023-02-14T02:11:08.384Z,99.90
2023-02-14T02:16:27.782Z,99.90
2023-02-14T02:21:55.727Z,99.90
2023-02-14T02:27:14.345Z,99.90
2023-02-14T02:32:50.421Z,99.90
2023-02-14T02:38:20.248Z,99.90
2023-02-14T02:43:50.781Z,99.90
2023-02-14T02:49:11.506Z,99.90
2023-02-14T02:54:20.743Z,99.90
2023-02-14T02:59:31.813Z,99.90
2023-02-14T03:04:55.095Z,99.90
2023-02-14T03:10:01.345Z,99.90
2023-02-14T03:15:20.665Z,99.90
2023-02-14T03:20:22.859Z,99.90
2023-02-14T03:25:38.972Z,99.90
2023-02-14T03:31:00.648Z,99.90
2023-02-14T03:36:22.176Z,99.90
2023-02-14T03:41:29.595Z,99.90
2023-02-14T03:46:45.704Z,99.90
2023-02-14T03:51:50.759Z,99.90
2023-02-14T03:57:15.367Z,99.90
2023-02-14T04:02:24.564Z,99.90
2023-02-14T04:07:26.763Z,99.90
2023-02-14T04:12:37.510Z,99.90
2023-02-14T04:17:58.972Z,99.90
2023-02-14T04:23:03.328Z,99.90
2023-02-14T04:28:05.788Z,99.90
2023-02-14T04:33:08.351Z,99.90
2023-02-14T04:38:10.436Z,99.90
2023-02-14T04:43:12.511Z,99.90
2023-02-14T04:48:14.980Z,99.90
2023-02-14T04:53:19.431Z,99.90
2023-02-14T04:58:21.522Z,99.90
2023-02-14T05:03:23.713Z,99.90
2023-02-14T05:08:25.775Z,99.90
2023-02-14T05:13:28.602Z,99.90
2023-02-14T05:18:30.691Z,99.90
2023-02-14T05:23:32.927Z,99.90
2023-02-14T05:28:35.896Z,99.90
2023-02-14T05:33:38.252Z,99.90
2023-02-14T05:38:40.506Z,99.90
2023-02-14T05:43:42.595Z,99.90
2023-02-14T05:48:45.920Z,99.90
2023-02-14T05:53:48.023Z,99.90
2023-02-14T05:58:50.064Z,99.90
2023-02-14T06:03:52.196Z,99.90
2023-02-14T06:08:54.373Z,99.90
2023-02-14T06:13:56.921Z,99.90
2023-02-14T06:18:59.079Z,99.90
2023-02-14T06:24:01.164Z,99.90
2023-02-14T06:29:03.847Z,99.90
2023-02-14T06:34:06.053Z,99.90
2023-02-14T06:39:08.168Z,99.90
2023-02-14T06:44:10.573Z,99.90
2023-02-14T06:49:12.763Z,99.90
2023-02-14T06:54:14.871Z,99.90
2023-02-14T06:59:17.377Z,99.90
2023-02-14T07:04:19.699Z,99.90
2023-02-14T07:09:21.832Z,99.90
2023-02-14T07:14:23.924Z,99.90
2023-02-14T07:19:26.122Z,99.90
2023-02-14T07:24:28.208Z,99.90
2023-02-14T07:29:30.305Z,99.90
2023-02-14T07:34:33.118Z,99.90
2023-02-14T07:39:35.279Z,99.90
2023-02-14T07:44:40.552Z,99.90
2023-02-14T07:49:42.626Z,99.90
2023-02-14T07:54:44.652Z,99.90
2023-02-14T07:59:46.946Z,99.90
2023-02-14T08:04:49.055Z,99.90
2023-02-14T08:09:51.179Z,99.90
2023-02-14T08:14:53.293Z,99.90
2023-02-14T08:19:55.388Z,99.90
2023-02-14T08:24:57.436Z,99.90
2023-02-14T08:29:59.565Z,99.90
2023-02-14T08:35:01.789Z,99.90
2023-02-14T08:40:04.420Z,99.90
2023-02-14T08:45:06.899Z,99.90
2023-02-14T08:50:14.861Z,99.90
2023-02-14T08:55:17.419Z,99.90
2023-02-14T09:00:20.097Z,99.90
2023-02-14T09:05:23.504Z,99.90
2023-02-14T09:10:26.118Z,99.90
2023-02-14T09:15:28.337Z,99.90
2023-02-14T09:20:30.614Z,99.90
2023-02-14T09:25:33.132Z,99.90
2023-02-14T09:30:35.243Z,99.90
2023-02-14T09:35:56.020Z,99.90
2023-02-14T09:40:58.808Z,99.90
2023-02-14T09:46:03.094Z,99.90
2023-02-14T09:51:14.403Z,99.90
2023-02-14T09:56:51.910Z,99.90
2023-02-14T10:01:59.454Z,99.90
2023-02-14T10:07:16.426Z,99.90
2023-02-14T10:12:24.405Z,99.90
2023-02-14T10:17:53.112Z,99.90
2023-02-14T10:23:18.674Z,99.90
2023-02-14T10:28:30.336Z,99.90
2023-02-14T10:33:36.272Z,99.90
2023-02-14T10:38:57.208Z,99.90
2023-02-14T10:44:14.784Z,99.90
2023-02-14T10:49:19.951Z,99.90
2023-02-14T10:54:43.525Z,99.90
2023-02-14T10:59:57.717Z,99.90
2023-02-14T11:05:02.416Z,99.90
2023-02-14T11:10:14.026Z,99.90
2023-02-14T11:15:25.005Z,99.90
2023-02-14T11:20:30.522Z,99.90
2023-02-14T11:25:35.281Z,99.90
2023-02-14T11:30:43.059Z,99.90
2023-02-14T11:35:53.341Z,99.30
2023-02-14T11:40:57.459Z,99.20
2023-02-14T11:46:07.998Z,96.90
2023-02-14T11:51:14.134Z,96.50
2023-02-14T11:56:18.189Z,96.50
2023-02-14T12:01:30.871Z,96.00
2023-02-14T12:06:35.667Z,94.30
2023-02-14T12:11:38.275Z,93.60
2023-02-14T12:16:48.885Z,93.10
2023-02-14T12:21:59.691Z,92.20
2023-02-14T12:27:25.397Z,90.80
2023-02-14T12:32:30.195Z,89.80
2023-02-14T12:38:08.529Z,89.50
2023-02-14T12:43:39.640Z,89.70
2023-02-14T12:48:50.618Z,90.40
2023-02-14T12:54:29.946Z,90.40
2023-02-14T13:00:04.368Z,90.10
2023-02-14T13:05:37.273Z,91.00
2023-02-14T13:11:32.497Z,90.90
2023-02-14T13:16:52.890Z,88.80
2023-02-14T13:21:59.703Z,86.60
2023-02-14T13:27:06.670Z,89.50
2023-02-14T13:32:12.744Z,89.80
2023-02-14T13:37:21.522Z,89.20
2023-02-14T13:42:52.750Z,88.30
2023-02-14T13:48:06.845Z,88.30
2023-02-14T13:53:13.808Z,88.40
2023-02-14T13:58:19.311Z,89.50
2023-02-14T14:03:30.402Z,89.50
2023-02-14T14:08:36.984Z,90.10
2023-02-14T14:13:42.172Z,91.10
2023-02-14T14:18:44.598Z,90.50
2023-02-14T14:24:04.510Z,89.20
2023-02-14T14:29:27.383Z,87.30
2023-02-14T14:34:29.486Z,85.90
2023-02-14T14:39:34.756Z,85.40
2023-02-14T14:44:46.753Z,84.90
2023-02-14T14:49:49.107Z,84.20
2023-02-14T14:54:51.312Z,84.00
2023-02-14T15:00:18.656Z,83.10
2023-02-14T15:05:32.713Z,85.60
2023-02-14T15:10:35.093Z,84.10
2023-02-14T15:15:37.319Z,85.90
2023-02-14T15:20:40.736Z,87.90
2023-02-14T15:25:46.506Z,87.20
2023-02-14T15:30:55.212Z,84.10
2023-02-14T15:36:02.152Z,83.90
2023-02-14T15:41:04.504Z,84.20
2023-02-14T15:46:26.360Z,84.70
2023-02-14T15:51:35.833Z,86.40
2023-02-14T15:56:45.717Z,86.80
2023-02-14T16:02:10.879Z,87.80
2023-02-14T16:07:28.750Z,88.10
2023-02-14T16:12:34.385Z,89.50
2023-02-14T16:17:37.361Z,90.60
2023-02-14T16:22:39.354Z,91.30
2023-02-14T16:27:41.659Z,92.10
2023-02-14T16:32:47.821Z,92.60
2023-02-14T16:37:52.408Z,92.70
2023-02-14T16:42:55.065Z,93.00
2023-02-14T16:47:57.170Z,93.60
2023-02-14T16:52:59.221Z,93.60
2023-02-14T16:58:02.710Z,94.20
2023-02-14T17:03:07.513Z,94.50
2023-02-14T17:08:12.671Z,94.90
2023-02-14T17:13:20.777Z,95.20
2023-02-14T17:18:24.570Z,95.50
2023-02-14T17:23:27.333Z,95.70
2023-02-14T17:28:29.517Z,96.20
2023-02-14T17:33:34.873Z,96.40
2023-02-14T17:38:37.332Z,96.80
2023-02-14T17:43:39.511Z,97.50
2023-02-14T17:48:42.113Z,97.50
2023-02-14T17:53:44.181Z,98.00
2023-02-14T17:58:48.539Z,98.20
2023-02-14T18:03:53.855Z,98.50
2023-02-14T18:08:57.698Z,98.50
2023-02-14T18:14:01.749Z,98.90
2023-02-14T18:19:06.499Z,99.00
2023-02-14T18:24:10.364Z,99.20
2023-02-14T18:29:13.699Z,99.30
2023-02-14T18:34:15.918Z,99.00
2023-02-14T18:39:19.883Z,98.60
2023-02-14T18:44:22.038Z,98.50
2023-02-14T18:49:24.190Z,98.50
2023-02-14T18:54:26.351Z,98.50
2023-02-14T18:59:28.456Z,98.60
2023-02-14T19:04:30.781Z,98.90
2023-02-14T19:09:39.034Z,99.10
2023-02-14T19:14:41.413Z,99.40
2023-02-14T19:19:43.612Z,99.60
2023-02-14T19:24:45.826Z,99.90
2023-02-14T19:29:48.256Z,99.90
2023-02-14T19:34:50.373Z,99.90
2023-02-14T19:39:52.507Z,99.90
2023-02-14T19:44:54.639Z,99.90
2023-02-14T19:49:56.914Z,99.90
2023-02-14T19:54:59.168Z,99.90
2023-02-14T20:00:01.283Z,99.90
2023-02-14T20:05:14.867Z,99.90
2023-02-14T20:10:17.550Z,99.90
2023-02-14T20:15:20.200Z,99.90
2023-02-14T20:20:22.581Z,99.90
2023-02-14T20:25:24.812Z,99.90
2023-02-14T20:30:26.998Z,99.90
2023-02-14T20:35:31.510Z,99.90
2023-02-14T20:40:40.119Z,99.90
2023-02-14T20:45:42.270Z,99.90
2023-02-14T20:50:44.409Z,99.90
2023-02-14T20:55:50.242Z,99.90
2023-02-14T21:00:52.349Z,99.90
2023-02-14T21:05:54.437Z,99.90
2023-02-14T21:10:56.688Z,99.90
2023-02-14T21:16:08.706Z,99.90
2023-02-14T21:21:25.951Z,99.90
2023-02-14T21:26:29.165Z,99.90
2023-02-14T21:31:32.414Z,99.90
2023-02-14T21:36:37.758Z,99.90
2023-02-14T21:41:39.917Z,99.90
2023-02-14T21:46:42.127Z,99.90
2023-02-14T21:51:44.369Z,99.90
2023-02-14T21:56:46.846Z,99.90
2023-02-14T22:01:49.018Z,99.90
2023-02-14T22:06:51.690Z,99.90
2023-02-14T22:11:53.849Z,99.90
2023-02-14T22:16:56.537Z,99.90
2023-02-14T22:21:58.587Z,99.90
2023-02-14T22:27:00.765Z,99.90
2023-02-14T22:32:03.171Z,99.90
2023-02-14T22:37:05.425Z,99.90
2023-02-14T22:42:07.643Z,99.90
2023-02-14T22:47:09.804Z,99.90
2023-02-14T22:52:11.975Z,99.90
2023-02-14T22:57:14.071Z,99.90
2023-02-14T23:02:16.220Z,99.90
2023-02-14T23:07:18.354Z,99.90
2023-02-14T23:12:39.013Z,99.90
2023-02-14T23:17:59.836Z,99.90
2023-02-14T23:23:01.932Z,99.90
2023-02-14T23:28:04.149Z,99.90
2023-02-14T23:33:06.365Z,99.90
2023-02-14T23:38:08.531Z,99.90
2023-02-14T23:43:10.609Z,99.90
2023-02-14T23:48:12.717Z,99.90
2023-02-14T23:53:15.598Z,99.90
2023-02-14T23:58:17.750Z,99.90
